Aviation Digital Data Service (ADDS)

Output produced by METARs form (0845 UTC 26 September 2016)
found at http://aviationweather.gov/adds/metars/
 
KDAG 260750Z AUTO 17006KT 10SM CLR 21/M05 A3010 RMK AO2 SLP171 T02061050 403280139
KDAG 260520Z 2606/2706 VRB06KT P6SM SKC 
     FM261600 08012KT P6SM SKC 
     FM270100 VRB06KT P6SM FEW250
       
KEDW 260758Z AUTO 36006KT 10SM CLR 19/M08 A3009 RMK AO2 SLP168 T01861084 403250107
KVCV 260835Z AUTO 00000KT 10SM CLR 20/M07 A3015 RMK AO2
KONT 260753Z 09004KT 10SM CLR 28/M05 A2998 RMK AO2 SLP129 T02831050 403720156
KONT 260520Z 2606/2712 VRB05KT P6SM SKC WS010/04022KT 
     FM261400 04011KT P6SM SKC 
     FM261700 04012G20KT P6SM SKC 
     FM262200 VRB05KT P6SM SKC
       
KSNA 260753Z AUTO 20004KT 10SM CLR 22/11 A2993 RMK AO2 SLP133 T02220111 403890167 $
KSNA 260520Z 2606/2706 25007KT P6SM SKC WS015/05020KT 
     FM261100 VRB04KT P6SM SKC WS015/09020KT 
     FM261700 VRB04KT P6SM SKC 
     FM261930 25010KT P6SM SKC 
     FM270200 VRB05KT P6SM SCT120
       
KSAN 260751Z 00000KT 10SM CLR 24/11 A2992 RMK AO2 SLP133 T02390111 $
KSAN 260520Z 2606/2712 VRB04KT P6SM SKC 
     FM260800 VRB04KT P6SM SKC WS015/09016KT 
     FM261500 VRB04KT P6SM SKC 
     FM262000 29011KT P6SM SCT120 
     FM270200 VRB04KT P6SM SCT120
       
KNID 260756Z AUTO 18005KT 10SM CLR 17/M08 A3012 RMK AO2 SLP182 T01721078 403500156 $
KNXP 260756Z AUTO 00000KT 10SM CLR 21/M02 A3016 RMK AO2 SLP180 T02061022 403170156
TAF KNXP 2603/2703 VRB06KT 9999 SKC QNH3008INS 
     TEMPO 2617/2623 08012G20KT AUTOMATED SENSOR METWATCH 2603 TIL 2615 T18/2613Z T33/2623Z
       
KPSP 260753Z AUTO 27007KT 10SM CLR 29/01 A2997 RMK AO2 SLP145 T02890006 403720206 TSNO
KPSP 260520Z 2606/2706 33008KT P6SM SKC WS015/03020KT 
     FM260800 VRB06KT P6SM SKC
       
KLAX 260753Z VRB04KT 10SM CLR 27/04 A2993 RMK AO2 SLP131 T02670044 403330172
KLAX 260539Z 2606/2712 VRB03KT P6SM SKC 
     FM260900 07006KT P6SM SKC WS010/07025KT 
     FM261900 25007KT P6SM SKC 
     FM262100 26014KT P6SM SKC 
     FM270300 26007KT P6SM SKC 
     FM270900 VRB03KT P6SM SKC
       
KCNO 260753Z AUTO 08005KT 9SM CLR 26/M02 A2998 RMK AO2 SLP145 T02561022 403780128
KSMO 260751Z AUTO 01004KT 10SM CLR 23/06 A2994 RMK AO2 SLP135 T02280056 403330167
KLGB 260753Z AUTO 00000KT 10SM CLR 21/11 A2993 RMK AO2 SLP134 T02110111 403720161 TSNO
KLGB 260539Z 2606/2706 VRB03KT P6SM SKC WS010/07025KT 
     FM262100 28012KT P6SM SKC 
     FM270300 VRB03KT P6SM SKC
       
KVNY 260751Z AUTO 35003KT 10SM CLR 24/M01 A2997 RMK AO2 SLP138 T02441011 403780172
KVNY 260539Z 2606/2706 36012KT P6SM SKC WS010/05030KT 
     FM261500 01015G25KT P6SM SKC WS010/07030KT 
     FM261900 03012KT P6SM SKC 
     FM270100 VRB03KT P6SM SKC
       
KBUR 260753Z 00000KT 10SM CLR 24/M02 A2997 RMK AO2 SLP132 T02441017 403720178
KBUR 260539Z 2606/2706 VRB03KT P6SM SKC WS015/07025KT 
     FM261600 04010KT P6SM SKC 
     FM262100 17008KT P6SM SKC 
     FM270300 VRB03KT P6SM SKC
       
KBFL 260754Z AUTO 00000KT 8SM CLR 22/06 A2998 RMK AO2 SLP147 T02220056 403610156 TSNO $
KBFL 260520Z 2606/2706 VRB04KT P6SM SKC 
     TEMPO 2621/2701 30010KT
       
KPMD 260753Z AUTO 34004KT 10SM CLR 18/M06 A3012 RMK AO2 SLP174 T01781056 403220111
KPMD 260539Z 2606/2706 VRB03KT P6SM SKC 
     FM261800 07012G18KT P6SM SKC 
     FM262300 07008KT P6SM SKC 
     FM270200 14007KT P6SM SKC
       
KOXR 260751Z AUTO 20003KT 10SM CLR 19/12 A2993 RMK AO2 SLP135 T01890122 403830156
KOXR 260539Z 2606/2706 06006KT P6SM SKC 
     FM261300 07018G25KT P6SM SKC 
     FM262100 22012KT P6SM SKC 
     FM270300 VRB03KT P6SM SKC
       
KWJF 260756Z 00000KT 10SM CLR 17/M08 A3012 RMK AO2 SLP184 T01671083 403330089
KWJF 260539Z 2606/2706 VRB03KT P6SM SKC 
     FM261800 07012G18KT P6SM SKC 
     FM262300 07007KT P6SM SKC 
     FM270300 14006KT P6SM SKC
       
KCMA 260755Z 00000KT 10SM CLR 19/09 A2993 RMK AO2 SLP143 T01890094 404000139
KFAT 260753Z 08004KT 10SM CLR 22/06 A2998 RMK AO2 SLP150 T02220061 403560150 $
KFAT 260520Z 2606/2706 VRB04KT P6SM SKC
       
KEED 260756Z AUTO 36009KT 10SM CLR 28/00 A3002 RMK AO2 SLP131 T02780000 403500239 $
KEED 260520Z 2606/2706 31010KT P6SM SKC 
     FM261400 01011KT P6SM SKC 
     FM261900 VRB06KT P6SM FEW250 
     FM270400 16008KT P6SM BKN250
       
KLSV 260758Z AUTO 03009KT 10SM CLR 23/M02 A3014 RMK AO2 SLP188 T02251020 403130165 $
TAF KLSV 260700Z 2607/2713 02012KT 9999 SKC QNH3014INS 
     BECMG 2617/2618 08012KT 9999 SKC QNH3008INS 
     BECMG 2702/2703 32009KT 9999 SKC QNH3003INS TX31/2700Z TN16/2612Z
       
KLAS 260756Z 00000KT 10SM CLR 25/M04 A3016 RMK AO2 SLP191 T02501044 403170194
KLAS 260520Z 2606/2706 02010KT P6SM SKC 
     FM260730 VRB06KT P6SM SKC 
     FM261700 05006KT P6SM SKC 
     FM270300 VRB06KT P6SM FEW250
       
KHII 260810Z AUTO 32009KT 10SM CLR 27/00 A2999 RMK AO2
KIFP 260835Z AUTO 02017KT 10SM CLR 28/00 A3001 RMK AO2
KIFP 260520Z 2606/2706 02011KT P6SM SKC 
     FM270300 VRB06KT P6SM SCT250